^^
Meteo Knjazevac Station Historical Data
Daily Summary for September 16, 2021 Units:  Both    English   Metric
Daily Weekly Monthly Yearly Custom
  High: Low: Average:
Temperature: 51.3 °F /  10.7 °C 46.5 °F /  8.1 °C 48.6 °F /  9.2 °C
Dew Point: 51 °F /  10.6 °C 46.3 °F /  7.9 °C 48.4 °F /  9.1 °C
Humidity: 99% 99% 99%
Wind Speed: 7mph /  11.3km/h - 2.2mph /  3.5km/h
Wind Gust: 14mph /  22.5km/h - -
Wind- - South
Pressure: 30.19 in /  1022.2 hPa 30.03 in /  1016.8 hPa -
Precipitation: 0.64 in /  16.26 mm    
Historical Graphs
 
 
Tabular Data for September 16, 2021
Time Temperature Dew Point Pressure Wind Wind Speed Wind Gust Humidity Rainfall Rate (Hourly) solar Conditions
00:00 46.5 °F /  8.1 °C 46.3 °F /  7.9 °C 30.05in /  1017.5hPa North 6mph /  9.7km/h 14mph /  22.5km/h 99% 0.00in /  0mm 0 W/m2
00:10 46.6 °F /  8.1 °C 46.3 °F /  7.9 °C 30.05in /  1017.5hPa North 6mph /  9.7km/h 12mph /  19.3km/h 99% 0.00in /  0mm 0 W/m2
00:20 46.6 °F /  8.1 °C 46.3 °F /  7.9 °C 30.05in /  1017.5hPa North 2mph /  3.2km/h 10mph /  16.1km/h 99% 0.00in /  0mm 0 W/m2
00:30 46.6 °F /  8.1 °C 46.3 °F /  7.9 °C 30.05in /  1017.5hPa North 3mph /  4.8km/h 10mph /  16.1km/h 99% 0.00in /  0mm 0 W/m2
00:40 46.6 °F /  8.1 °C 46.3 °F /  7.9 °C 30.05in /  1017.5hPa North 5mph /  8km/h 11mph /  17.7km/h 99% 0.00in /  0mm 0 W/m2
00:50 46.8 °F /  8.2 °C 46.5 °F /  8.1 °C 30.05in /  1017.5hPa North 3mph /  4.8km/h 10mph /  16.1km/h 99% 0.00in /  0mm 0 W/m2
01:00 46.8 °F /  8.2 °C 46.5 °F /  8.1 °C 30.04in /  1017.2hPa North 2mph /  3.2km/h 7mph /  11.3km/h 99% 0.00in /  0mm 0 W/m2
01:10 46.8 °F /  8.2 °C 46.5 °F /  8.1 °C 30.05in /  1017.5hPa North 3mph /  4.8km/h 8mph /  12.9km/h 99% 0.00in /  0mm 0 W/m2
01:20 46.8 °F /  8.2 °C 46.5 °F /  8.1 °C 30.05in /  1017.5hPa North 2mph /  3.2km/h 7mph /  11.3km/h 99% 0.00in /  0mm 0 W/m2
01:30 46.9 °F /  8.3 °C 46.7 °F /  8.2 °C 30.05in /  1017.5hPa Calm   7mph /  11.3km/h 99% 0.00in /  0mm 0 W/m2
01:40 46.9 °F /  8.3 °C 46.7 °F /  8.2 °C 30.05in /  1017.5hPa NNE 2mph /  3.2km/h 7mph /  11.3km/h 99% 0.01in /  0.25mm 0 W/m2
01:50 46.9 °F /  8.3 °C 46.7 °F /  8.2 °C 30.05in /  1017.5hPa Calm   3mph /  4.8km/h 99% 0.02in /  0.51mm 0 W/m2
02:00 46.9 °F /  8.3 °C 46.7 °F /  8.2 °C 30.04in /  1017.2hPa North 3mph /  4.8km/h 6mph /  9.7km/h 99% 0.03in /  0.76mm 0 W/m2
02:10 46.9 °F /  8.3 °C 46.6 °F /  8.1 °C 30.04in /  1017.2hPa Calm   6mph /  9.7km/h 99% 0.02in /  0.51mm 0 W/m2
02:20 46.9 °F /  8.3 °C 46.7 °F /  8.2 °C 30.04in /  1017.2hPa Calm   8mph /  12.9km/h 99% 0.02in /  0.51mm 0 W/m2
02:30 46.9 °F /  8.3 °C 46.7 °F /  8.2 °C 30.04in /  1017.2hPa NNE 1mph /  1.6km/h 4mph /  6.4km/h 99% 0.01in /  0.25mm 0 W/m2
02:40 46.9 °F /  8.3 °C 46.7 °F /  8.2 °C 30.04in /  1017.2hPa NNE 1mph /  1.6km/h 5mph /  8km/h 99% 0.02in /  0.51mm 0 W/m2
02:50 46.9 °F /  8.3 °C 46.7 °F /  8.2 °C 30.04in /  1017.2hPa NNE 2mph /  3.2km/h 3mph /  4.8km/h 99% 0.02in /  0.51mm 0 W/m2
03:00 47.1 °F /  8.4 °C 46.9 °F /  8.3 °C 30.04in /  1017.2hPa Calm   2mph /  3.2km/h 99% 0.02in /  0.51mm 0 W/m2
03:10 47.1 °F /  8.4 °C 46.8 °F /  8.2 °C 30.04in /  1017.2hPa North 2mph /  3.2km/h 5mph /  8km/h 99% 0.01in /  0.25mm 0 W/m2
03:20 47.1 °F /  8.4 °C 46.9 °F /  8.3 °C 30.04in /  1017.2hPa North 2mph /  3.2km/h 6mph /  9.7km/h 99% 0.00in /  0mm 0 W/m2
03:30 47.3 °F /  8.5 °C 47 °F /  8.3 °C 30.04in /  1017.2hPa Calm   8mph /  12.9km/h 99% 0.00in /  0mm 0 W/m2
03:40 47.5 °F /  8.6 °C 47.2 °F /  8.4 °C 30.03in /  1016.8hPa North 2mph /  3.2km/h 9mph /  14.5km/h 99% 0.00in /  0mm 0 W/m2
03:50 47.5 °F /  8.6 °C 47.2 °F /  8.4 °C 30.03in /  1016.8hPa North 5mph /  8km/h 8mph /  12.9km/h 99% 0.00in /  0mm 0 W/m2
04:00 47.7 °F /  8.7 °C 47.4 °F /  8.6 °C 30.03in /  1016.8hPa North 3mph /  4.8km/h 10mph /  16.1km/h 99% 0.00in /  0mm 0 W/m2
04:10 47.8 °F /  8.8 °C 47.6 °F /  8.7 °C 30.03in /  1016.8hPa North 5mph /  8km/h 8mph /  12.9km/h 99% 0.00in /  0mm 0 W/m2
04:20 47.8 °F /  8.8 °C 47.6 °F /  8.7 °C 30.03in /  1016.8hPa North 5mph /  8km/h 9mph /  14.5km/h 99% 0.01in /  0.25mm 0 W/m2
04:30 48 °F /  8.9 °C 47.8 °F /  8.8 °C 30.03in /  1016.8hPa North 3mph /  4.8km/h 10mph /  16.1km/h 99% 0.01in /  0.25mm 0 W/m2
04:40 48 °F /  8.9 °C 47.8 °F /  8.8 °C 30.04in /  1017.2hPa North 3mph /  4.8km/h 9mph /  14.5km/h 99% 0.01in /  0.25mm 0 W/m2
04:50 48 °F /  8.9 °C 47.8 °F /  8.8 °C 30.04in /  1017.2hPa North 3mph /  4.8km/h 8mph /  12.9km/h 99% 0.02in /  0.51mm 0 W/m2
05:00 48 °F /  8.9 °C 47.8 °F /  8.8 °C 30.04in /  1017.2hPa North 3mph /  4.8km/h 8mph /  12.9km/h 99% 0.02in /  0.51mm 0 W/m2
05:10 48.2 °F /  9 °C 47.9 °F /  8.8 °C 30.04in /  1017.2hPa North 7mph /  11.3km/h 11mph /  17.7km/h 99% 0.01in /  0.25mm 0 W/m2
05:20 48.2 °F /  9 °C 47.9 °F /  8.8 °C 30.03in /  1016.8hPa North 2mph /  3.2km/h 11mph /  17.7km/h 99% 0.00in /  0mm 0 W/m2
05:30 48.2 °F /  9 °C 47.9 °F /  8.8 °C 30.04in /  1017.2hPa North 6mph /  9.7km/h 11mph /  17.7km/h 99% 0.01in /  0.25mm 0 W/m2
05:40 48.4 °F /  9.1 °C 48.1 °F /  8.9 °C 30.04in /  1017.2hPa North 3mph /  4.8km/h 9mph /  14.5km/h 99% 0.01in /  0.25mm 0 W/m2
05:50 48.4 °F /  9.1 °C 48.1 °F /  8.9 °C 30.04in /  1017.2hPa North 3mph /  4.8km/h 10mph /  16.1km/h 99% 0.02in /  0.51mm 0 W/m2
06:00 48.4 °F /  9.1 °C 48.1 °F /  8.9 °C 30.03in /  1016.8hPa NNE 3mph /  4.8km/h 8mph /  12.9km/h 99% 0.01in /  0.25mm 0 W/m2
06:10 48.4 °F /  9.1 °C 48.1 °F /  8.9 °C 30.04in /  1017.2hPa North 3mph /  4.8km/h 9mph /  14.5km/h 99% 0.02in /  0.51mm 0 W/m2
06:20 48.4 °F /  9.1 °C 48.1 °F /  8.9 °C 30.04in /  1017.2hPa North 5mph /  8km/h 8mph /  12.9km/h 99% 0.02in /  0.51mm 0 W/m2
06:30 48.4 °F /  9.1 °C 48.1 °F /  8.9 °C 30.04in /  1017.2hPa North 5mph /  8km/h 9mph /  14.5km/h 99% 0.02in /  0.51mm 0 W/m2
06:40 48.4 °F /  9.1 °C 48.1 °F /  8.9 °C 30.04in /  1017.2hPa North 2mph /  3.2km/h 6mph /  9.7km/h 99% 0.01in /  0.25mm 0 W/m2
06:50 48.4 °F /  9.1 °C 48.1 °F /  8.9 °C 30.04in /  1017.2hPa North 2mph /  3.2km/h 7mph /  11.3km/h 99% 0.02in /  0.51mm 0 W/m2
07:00 48.4 °F /  9.1 °C 48.1 °F /  8.9 °C 30.04in /  1017.2hPa North 1mph /  1.6km/h 7mph /  11.3km/h 99% 0.02in /  0.51mm 1 W/m2
07:10 48.6 °F /  9.2 °C 48.3 °F /  9.1 °C 30.04in /  1017.2hPa Calm   6mph /  9.7km/h 99% 0.02in /  0.51mm 3 W/m2
07:20 48.6 °F /  9.2 °C 48.3 °F /  9.1 °C 30.04in /  1017.2hPa North 3mph /  4.8km/h 9mph /  14.5km/h 99% 0.01in /  0.25mm 5 W/m2
07:30 48.6 °F /  9.2 °C 48.3 °F /  9.1 °C 30.04in /  1017.2hPa North 1mph /  1.6km/h 7mph /  11.3km/h 99% 0.00in /  0mm 5 W/m2
07:40 48.6 °F /  9.2 °C 48.3 °F /  9.1 °C 30.05in /  1017.5hPa North 1mph /  1.6km/h 7mph /  11.3km/h 99% 0.01in /  0.25mm 5 W/m2
07:50 48.7 °F /  9.3 °C 48.5 °F /  9.2 °C 30.06in /  1017.8hPa North 2mph /  3.2km/h 5mph /  8km/h 99% 0.00in /  0mm 6 W/m2
08:00 48.6 °F /  9.2 °C 48.3 °F /  9.1 °C 30.06in /  1017.8hPa North 3mph /  4.8km/h 7mph /  11.3km/h 99% 0.00in /  0mm 7 W/m2
08:10 48.7 °F /  9.3 °C 48.5 °F /  9.2 °C 30.06in /  1017.8hPa North 3mph /  4.8km/h 8mph /  12.9km/h 99% 0.06in /  1.52mm 10 W/m2
08:20 48.7 °F /  9.3 °C 48.5 °F /  9.2 °C 30.06in /  1017.8hPa North 5mph /  8km/h 9mph /  14.5km/h 99% 0.00in /  0mm 24 W/m2
08:30 48.9 °F /  9.4 °C 48.7 °F /  9.3 °C 30.06in /  1017.8hPa North 1mph /  1.6km/h 8mph /  12.9km/h 99% 0.01in /  0.25mm 33 W/m2
08:40 48.9 °F /  9.4 °C 48.7 °F /  9.3 °C 30.06in /  1017.8hPa North 2mph /  3.2km/h 8mph /  12.9km/h 99% 0.00in /  0mm 26 W/m2
08:50 49.1 °F /  9.5 °C 48.8 °F /  9.3 °C 30.07in /  1018.2hPa North 3mph /  4.8km/h 10mph /  16.1km/h 99% 0.00in /  0mm 36 W/m2
09:00 49.1 °F /  9.5 °C 48.8 °F /  9.3 °C 30.07in /  1018.2hPa North 2mph /  3.2km/h 9mph /  14.5km/h 99% 0.00in /  0mm 51 W/m2
09:10 49.3 °F /  9.6 °C 49 °F /  9.4 °C 30.07in /  1018.2hPa North 2mph /  3.2km/h 8mph /  12.9km/h 99% 0.01in /  0.25mm 66 W/m2
09:20 49.5 °F /  9.7 °C 49.2 °F /  9.6 °C 30.07in /  1018.2hPa North 3mph /  4.8km/h 8mph /  12.9km/h 99% 0.01in /  0.25mm 56 W/m2
09:30 49.5 °F /  9.7 °C 49.2 °F /  9.6 °C 30.07in /  1018.2hPa North 3mph /  4.8km/h 7mph /  11.3km/h 99% 0.00in /  0mm 50 W/m2
09:40 49.6 °F /  9.8 °C 49.4 °F /  9.7 °C 30.07in /  1018.2hPa North 1mph /  1.6km/h 8mph /  12.9km/h 99% 0.00in /  0mm 48 W/m2
09:50 49.6 °F /  9.8 °C 49.4 °F /  9.7 °C 30.08in /  1018.5hPa NNE 3mph /  4.8km/h 9mph /  14.5km/h 99% 0.00in /  0mm 55 W/m2
10:00 49.6 °F /  9.8 °C 49.4 °F /  9.7 °C 30.08in /  1018.5hPa NNE 5mph /  8km/h 8mph /  12.9km/h 99% 0.00in /  0mm 59 W/m2
10:10 49.6 °F /  9.8 °C 49.4 °F /  9.7 °C 30.08in /  1018.5hPa North 2mph /  3.2km/h 8mph /  12.9km/h 99% 0.00in /  0mm 63 W/m2
10:20 49.8 °F /  9.9 °C 49.6 °F /  9.8 °C 30.08in /  1018.5hPa North 5mph /  8km/h 8mph /  12.9km/h 99% 0.00in /  0mm 83 W/m2
10:30 50 °F /  10 °C 49.7 °F /  9.8 °C 30.09in /  1018.8hPa North 1mph /  1.6km/h 8mph /  12.9km/h 99% 0.00in /  0mm 91 W/m2
10:40 50.2 °F /  10.1 °C 49.9 °F /  9.9 °C 30.09in /  1018.8hPa North 2mph /  3.2km/h 6mph /  9.7km/h 99% 0.00in /  0mm 84 W/m2
10:50 50.2 °F /  10.1 °C 49.9 °F /  9.9 °C 30.09in /  1018.8hPa Calm   4mph /  6.4km/h 99% 0.00in /  0mm 108 W/m2
11:00 50.4 °F /  10.2 °C 50.1 °F /  10.1 °C 30.09in /  1018.8hPa North 2mph /  3.2km/h 7mph /  11.3km/h 99% 0.00in /  0mm 122 W/m2
11:10 50.5 °F /  10.3 °C 50.3 °F /  10.2 °C 30.09in /  1018.8hPa North 2mph /  3.2km/h 5mph /  8km/h 99% 0.00in /  0mm 125 W/m2
11:20 50.7 °F /  10.4 °C 50.4 °F /  10.2 °C 30.09in /  1018.8hPa North 2mph /  3.2km/h 6mph /  9.7km/h 99% 0.00in /  0mm 100 W/m2
11:30 50.9 °F /  10.5 °C 50.6 °F /  10.3 °C 30.09in /  1018.8hPa North 2mph /  3.2km/h 6mph /  9.7km/h 99% 0.00in /  0mm 94 W/m2
11:40 50.9 °F /  10.5 °C 50.6 °F /  10.3 °C 30.09in /  1018.8hPa NNE 2mph /  3.2km/h 7mph /  11.3km/h 99% 0.00in /  0mm 95 W/m2
11:50 51.1 °F /  10.6 °C 50.8 °F /  10.4 °C 30.10in /  1019.2hPa North 2mph /  3.2km/h 6mph /  9.7km/h 99% 0.00in /  0mm 93 W/m2
12:00 51.1 °F /  10.6 °C 50.8 °F /  10.4 °C 30.10in /  1019.2hPa North 1mph /  1.6km/h 6mph /  9.7km/h 99% 0.00in /  0mm 98 W/m2
12:10 51.3 °F /  10.7 °C 51 °F /  10.6 °C 30.10in /  1019.2hPa Calm   4mph /  6.4km/h 99% 0.00in /  0mm 99 W/m2
12:20 51.3 °F /  10.7 °C 51 °F /  10.6 °C 30.10in /  1019.2hPa Calm   3mph /  4.8km/h 99% 0.00in /  0mm 72 W/m2
12:30 51.3 °F /  10.7 °C 51 °F /  10.6 °C 30.10in /  1019.2hPa Calm   3mph /  4.8km/h 99% 0.00in /  0mm 54 W/m2
12:40 51.3 °F /  10.7 °C 51 °F /  10.6 °C 30.10in /  1019.2hPa NNE 2mph /  3.2km/h 5mph /  8km/h 99% 0.00in /  0mm 61 W/m2
12:50 51.3 °F /  10.7 °C 51 °F /  10.6 °C 30.10in /  1019.2hPa NNE 2mph /  3.2km/h 5mph /  8km/h 99% 0.00in /  0mm 48 W/m2
13:00 51.3 °F /  10.7 °C 51 °F /  10.6 °C 30.10in /  1019.2hPa NNE 2mph /  3.2km/h 5mph /  8km/h 99% 0.00in /  0mm 68 W/m2
13:10 51.3 °F /  10.7 °C 51 °F /  10.6 °C 30.10in /  1019.2hPa NNE 2mph /  3.2km/h 6mph /  9.7km/h 99% 0.00in /  0mm 52 W/m2
13:20 51.3 °F /  10.7 °C 51 °F /  10.6 °C 30.10in /  1019.2hPa NNW 3mph /  4.8km/h 5mph /  8km/h 99% 0.00in /  0mm 43 W/m2
13:30 50.9 °F /  10.5 °C 50.6 °F /  10.3 °C 30.10in /  1019.2hPa West 3mph /  4.8km/h 6mph /  9.7km/h 99% 0.00in /  0mm 54 W/m2
13:40 50.6 °F /  10.3 °C 50.3 °F /  10.2 °C 30.10in /  1019.2hPa West 3mph /  4.8km/h 8mph /  12.9km/h 99% 0.00in /  0mm 63 W/m2
13:50 50.4 °F /  10.2 °C 50.1 °F /  10.1 °C 30.10in /  1019.2hPa West 5mph /  8km/h 8mph /  12.9km/h 99% 0.00in /  0mm 94 W/m2
14:00 50 °F /  10 °C 49.7 °F /  9.8 °C 30.10in /  1019.2hPa West 5mph /  8km/h 10mph /  16.1km/h 99% 0.00in /  0mm 84 W/m2
14:10 49.8 °F /  9.9 °C 49.6 °F /  9.8 °C 30.10in /  1019.2hPa West 5mph /  8km/h 7mph /  11.3km/h 99% 0.00in /  0mm 69 W/m2
14:20 49.6 °F /  9.8 °C 49.4 °F /  9.7 °C 30.10in /  1019.2hPa West 6mph /  9.7km/h 10mph /  16.1km/h 99% 0.00in /  0mm 87 W/m2
14:30 49.6 °F /  9.8 °C 49.4 °F /  9.7 °C 30.10in /  1019.2hPa West 6mph /  9.7km/h 9mph /  14.5km/h 99% 0.00in /  0mm 75 W/m2
14:40 49.5 °F /  9.7 °C 49.2 °F /  9.6 °C 30.10in /  1019.2hPa West 6mph /  9.7km/h 9mph /  14.5km/h 99% 0.00in /  0mm 69 W/m2
14:50 49.3 °F /  9.6 °C 49 °F /  9.4 °C 30.10in /  1019.2hPa West 5mph /  8km/h 10mph /  16.1km/h 99% 0.00in /  0mm 47 W/m2
15:00 49.1 °F /  9.5 °C 48.8 °F /  9.3 °C 30.10in /  1019.2hPa West 5mph /  8km/h 10mph /  16.1km/h 99% 0.00in /  0mm 49 W/m2
15:10 49.1 °F /  9.5 °C 48.8 °F /  9.3 °C 30.10in /  1019.2hPa West 3mph /  4.8km/h 9mph /  14.5km/h 99% 0.00in /  0mm 43 W/m2
15:20 49.1 °F /  9.5 °C 48.8 °F /  9.3 °C 30.11in /  1019.5hPa West 5mph /  8km/h 8mph /  12.9km/h 99% 0.00in /  0mm 45 W/m2
15:30 49.1 °F /  9.5 °C 48.8 °F /  9.3 °C 30.11in /  1019.5hPa West 5mph /  8km/h 10mph /  16.1km/h 99% 0.00in /  0mm 38 W/m2
15:40 49.1 °F /  9.5 °C 48.8 °F /  9.3 °C 30.11in /  1019.5hPa West 3mph /  4.8km/h 10mph /  16.1km/h 99% 0.00in /  0mm 30 W/m2
15:50 49.1 °F /  9.5 °C 48.8 °F /  9.3 °C 30.11in /  1019.5hPa WSW 3mph /  4.8km/h 10mph /  16.1km/h 99% 0.00in /  0mm 28 W/m2
16:00 49.1 °F /  9.5 °C 48.8 °F /  9.3 °C 30.12in /  1019.9hPa WSW 3mph /  4.8km/h 7mph /  11.3km/h 99% 0.00in /  0mm 22 W/m2
16:10 49.1 °F /  9.5 °C 48.8 °F /  9.3 °C 30.12in /  1019.9hPa WSW 2mph /  3.2km/h 5mph /  8km/h 99% 0.00in /  0mm 16 W/m2
16:20 49.1 °F /  9.5 °C 48.8 °F /  9.3 °C 30.12in /  1019.9hPa West 3mph /  4.8km/h 7mph /  11.3km/h 99% 0.00in /  0mm 15 W/m2
16:30 48.9 °F /  9.4 °C 48.7 °F /  9.3 °C 30.12in /  1019.9hPa West 2mph /  3.2km/h 8mph /  12.9km/h 99% 0.00in /  0mm 12 W/m2
16:40 48.9 °F /  9.4 °C 48.7 °F /  9.3 °C 30.12in /  1019.9hPa WSW 3mph /  4.8km/h 6mph /  9.7km/h 99% 0.00in /  0mm 10 W/m2
16:50 48.9 °F /  9.4 °C 48.6 °F /  9.2 °C 30.12in /  1019.9hPa WSW 2mph /  3.2km/h 6mph /  9.7km/h 99% 0.00in /  0mm 8 W/m2
17:00 48.7 °F /  9.3 °C 48.5 °F /  9.2 °C 30.12in /  1019.9hPa Calm   6mph /  9.7km/h 99% 0.00in /  0mm 8 W/m2
17:10 48.7 °F /  9.3 °C 48.5 °F /  9.2 °C 30.13in /  1020.2hPa SW 1mph /  1.6km/h 5mph /  8km/h 99% 0.00in /  0mm 5 W/m2
17:20 48.7 °F /  9.3 °C 48.5 °F /  9.2 °C 30.13in /  1020.2hPa SSW 2mph /  3.2km/h 3mph /  4.8km/h 99% 0.00in /  0mm 3 W/m2
17:30 48.6 °F /  9.2 °C 48.3 °F /  9.1 °C 30.13in /  1020.2hPa SW 1mph /  1.6km/h 4mph /  6.4km/h 99% 0.00in /  0mm 1 W/m2
17:40 48.6 °F /  9.2 °C 48.3 °F /  9.1 °C 30.14in /  1020.5hPa SW 2mph /  3.2km/h 4mph /  6.4km/h 99% 0.00in /  0mm 0 W/m2
17:50 48.6 °F /  9.2 °C 48.3 °F /  9.1 °C 30.14in /  1020.5hPa SW 1mph /  1.6km/h 4mph /  6.4km/h 99% 0.00in /  0mm 0 W/m2
18:00 48.6 °F /  9.2 °C 48.3 °F /  9.1 °C 30.14in /  1020.5hPa SSW 2mph /  3.2km/h 4mph /  6.4km/h 99% 0.00in /  0mm 0 W/m2
18:10 48.5 °F /  9.2 °C 48.3 °F /  9.1 °C 30.14in /  1020.5hPa SSW 1mph /  1.6km/h 4mph /  6.4km/h 99% 0.00in /  0mm 0 W/m2
18:20 48.6 °F /  9.2 °C 48.3 °F /  9.1 °C 30.15in /  1020.9hPa SW 2mph /  3.2km/h 5mph /  8km/h 99% 0.00in /  0mm 0 W/m2
18:30 48.4 °F /  9.1 °C 48.1 °F /  8.9 °C 30.15in /  1020.9hPa SW 2mph /  3.2km/h 5mph /  8km/h 99% 0.00in /  0mm 0 W/m2
18:40 48.4 °F /  9.1 °C 48.1 °F /  8.9 °C 30.15in /  1020.9hPa SW 1mph /  1.6km/h 4mph /  6.4km/h 99% 0.00in /  0mm 0 W/m2
18:50 48.4 °F /  9.1 °C 48.1 °F /  8.9 °C 30.15in /  1020.9hPa West 1mph /  1.6km/h 3mph /  4.8km/h 99% 0.00in /  0mm 0 W/m2
19:00 48.4 °F /  9.1 °C 48.1 °F /  8.9 °C 30.16in /  1021.2hPa WSW 1mph /  1.6km/h 3mph /  4.8km/h 99% 0.00in /  0mm 0 W/m2
19:10 48.4 °F /  9.1 °C 48.1 °F /  8.9 °C 30.16in /  1021.2hPa South 1mph /  1.6km/h 2mph /  3.2km/h 99% 0.00in /  0mm 0 W/m2
19:20 48.4 °F /  9.1 °C 48.1 °F /  8.9 °C 30.16in /  1021.2hPa Calm   2mph /  3.2km/h 99% 0.00in /  0mm 0 W/m2
19:30 48.4 °F /  9.1 °C 48.1 °F /  8.9 °C 30.17in /  1021.6hPa SSW 2mph /  3.2km/h 3mph /  4.8km/h 99% 0.09in /  2.29mm 0 W/m2
19:40 48.3 °F /  9.1 °C 48.1 °F /  8.9 °C 30.17in /  1021.6hPa SW 1mph /  1.6km/h 3mph /  4.8km/h 99% 0.00in /  0mm 0 W/m2
19:50 48.2 °F /  9 °C 47.9 °F /  8.8 °C 30.17in /  1021.6hPa SSE 1mph /  1.6km/h 4mph /  6.4km/h 99% 0.00in /  0mm 0 W/m2
20:00 48.2 °F /  9 °C 47.9 °F /  8.8 °C 30.17in /  1021.6hPa SE 1mph /  1.6km/h 3mph /  4.8km/h 99% 0.00in /  0mm 0 W/m2
20:10 48.2 °F /  9 °C 47.9 °F /  8.8 °C 30.17in /  1021.6hPa Calm   3mph /  4.8km/h 99% 0.00in /  0mm 0 W/m2
20:20 48.2 °F /  9 °C 47.9 °F /  8.8 °C 30.17in /  1021.6hPa Calm   4mph /  6.4km/h 99% 0.00in /  0mm 0 W/m2
20:30 48.2 °F /  9 °C 47.9 °F /  8.8 °C 30.17in /  1021.6hPa NNE 1mph /  1.6km/h 2mph /  3.2km/h 99% 0.00in /  0mm 0 W/m2
20:40 48.2 °F /  9 °C 47.9 °F /  8.8 °C 30.17in /  1021.6hPa Calm   2mph /  3.2km/h 99% 0.00in /  0mm 0 W/m2
20:50 48.2 °F /  9 °C 47.9 °F /  8.8 °C 30.18in /  1021.9hPa Calm   2mph /  3.2km/h 99% 0.00in /  0mm 0 W/m2
21:00 48.2 °F /  9 °C 47.9 °F /  8.8 °C 30.18in /  1021.9hPa Calm   2mph /  3.2km/h 99% 0.00in /  0mm 0 W/m2
21:10 48.2 °F /  9 °C 47.9 °F /  8.8 °C 30.18in /  1021.9hPa Calm   2mph /  3.2km/h 99% 0.00in /  0mm 0 W/m2
21:20 48.2 °F /  9 °C 47.9 °F /  8.8 °C 30.18in /  1021.9hPa Calm   2mph /  3.2km/h 99% 0.00in /  0mm 0 W/m2
21:30 48 °F /  8.9 °C 47.8 °F /  8.8 °C 30.18in /  1021.9hPa WSW 1mph /  1.6km/h 3mph /  4.8km/h 99% 0.00in /  0mm 0 W/m2
21:40 48 °F /  8.9 °C 47.8 °F /  8.8 °C 30.18in /  1021.9hPa Calm   2mph /  3.2km/h 99% 0.00in /  0mm 0 W/m2
21:50 48 °F /  8.9 °C 47.8 °F /  8.8 °C 30.19in /  1022.2hPa SSE 1mph /  1.6km/h 2mph /  3.2km/h 99% 0.00in /  0mm 0 W/m2
22:00 48 °F /  8.9 °C 47.8 °F /  8.8 °C 30.19in /  1022.2hPa SW 1mph /  1.6km/h 2mph /  3.2km/h 99% 0.00in /  0mm 0 W/m2
22:10 48 °F /  8.9 °C 47.8 °F /  8.8 °C 30.19in /  1022.2hPa Calm   3mph /  4.8km/h 99% 0.00in /  0mm 0 W/m2
22:20 48 °F /  8.9 °C 47.8 °F /  8.8 °C 30.19in /  1022.2hPa SW 2mph /  3.2km/h 4mph /  6.4km/h 99% 0.00in /  0mm 0 W/m2
22:30 48 °F /  8.9 °C 47.8 °F /  8.8 °C 30.19in /  1022.2hPa SW 2mph /  3.2km/h 4mph /  6.4km/h 99% 0.00in /  0mm 0 W/m2
22:40 48 °F /  8.9 °C 47.8 °F /  8.8 °C 30.19in /  1022.2hPa SW 2mph /  3.2km/h 5mph /  8km/h 99% 0.00in /  0mm 0 W/m2
22:50 48 °F /  8.9 °C 47.7 °F /  8.7 °C 30.19in /  1022.2hPa SW 2mph /  3.2km/h 3mph /  4.8km/h 99% 0.00in /  0mm 0 W/m2
23:00 47.8 °F /  8.8 °C 47.6 °F /  8.7 °C 30.19in /  1022.2hPa SW 2mph /  3.2km/h 4mph /  6.4km/h 99% 0.00in /  0mm 0 W/m2
23:10 47.8 °F /  8.8 °C 47.6 °F /  8.7 °C 30.19in /  1022.2hPa SW 2mph /  3.2km/h 4mph /  6.4km/h 99% 0.00in /  0mm 0 W/m2
23:20 47.8 °F /  8.8 °C 47.6 °F /  8.7 °C 30.19in /  1022.2hPa SW 1mph /  1.6km/h 4mph /  6.4km/h 99% 0.00in /  0mm 0 W/m2
23:30 47.8 °F /  8.8 °C 47.6 °F /  8.7 °C 30.19in /  1022.2hPa Calm   4mph /  6.4km/h 99% 0.00in /  0mm 0 W/m2
23:40 47.8 °F /  8.8 °C 47.6 °F /  8.7 °C 30.19in /  1022.2hPa Calm   4mph /  6.4km/h 99% 0.00in /  0mm 0 W/m2
23:50 47.8 °F /  8.8 °C 47.6 °F /  8.7 °C 30.19in /  1022.2hPa ESE 1mph /  1.6km/h 3mph /  4.8km/h 99% 0.00in /  0mm 0 W/m2
Knjazevac, Serbia
Compliments of Weather Underground - 2 mb